sensor_id;sensor_type;location;lat;lon;timestamp;P1;durP1;ratioP1;P2;durP2;ratioP2
57303;SDS011;43150;50.986;18.208;2023-02-19T00:01:30;7.70;;;4.80;;
57303;SDS011;43150;50.986;18.208;2023-02-19T00:03:57;10.90;;;6.20;;
57303;SDS011;43150;50.986;18.208;2023-02-19T00:06:26;9.50;;;6.20;;
57303;SDS011;43150;50.986;18.208;2023-02-19T00:08:52;8.00;;;5.50;;
57303;SDS011;43150;50.986;18.208;2023-02-19T00:11:22;9.00;;;5.70;;
57303;SDS011;43150;50.986;18.208;2023-02-19T00:13:50;10.50;;;6.40;;
57303;SDS011;43150;50.986;18.208;2023-02-19T00:16:26;10.30;;;5.50;;
57303;SDS011;43150;50.986;18.208;2023-02-19T00:18:53;9.50;;;6.40;;
57303;SDS011;43150;50.986;18.208;2023-02-19T00:21:19;11.10;;;6.30;;
57303;SDS011;43150;50.986;18.208;2023-02-19T00:23:51;11.40;;;8.40;;
57303;SDS011;43150;50.986;18.208;2023-02-19T00:26:17;9.60;;;7.10;;
57303;SDS011;43150;50.986;18.208;2023-02-19T00:28:42;10.90;;;5.80;;
57303;SDS011;43150;50.986;18.208;2023-02-19T00:31:11;7.10;;;4.70;;
57303;SDS011;43150;50.986;18.208;2023-02-19T00:33:40;9.10;;;6.30;;
57303;SDS011;43150;50.986;18.208;2023-02-19T00:36:08;8.60;;;5.40;;
57303;SDS011;43150;50.986;18.208;2023-02-19T00:38:35;8.60;;;5.00;;
57303;SDS011;43150;50.986;18.208;2023-02-19T00:41:01;5.80;;;3.70;;
57303;SDS011;43150;50.986;18.208;2023-02-19T00:46:15;5.40;;;3.90;;
57303;SDS011;43150;50.986;18.208;2023-02-19T00:48:45;5.00;;;3.20;;
57303;SDS011;43150;50.986;18.208;2023-02-19T00:51:11;5.30;;;3.20;;
57303;SDS011;43150;50.986;18.208;2023-02-19T00:53:37;5.80;;;3.40;;
57303;SDS011;43150;50.986;18.208;2023-02-19T00:56:03;4.70;;;2.80;;
57303;SDS011;43150;50.986;18.208;2023-02-19T00:58:29;3.90;;;2.20;;
57303;SDS011;43150;50.986;18.208;2023-02-19T01:00:55;3.10;;;2.10;;
57303;SDS011;43150;50.986;18.208;2023-02-19T01:03:21;4.90;;;2.40;;
57303;SDS011;43150;50.986;18.208;2023-02-19T01:05:48;3.90;;;2.20;;
57303;SDS011;43150;50.986;18.208;2023-02-19T01:08:13;3.20;;;2.30;;
57303;SDS011;43150;50.986;18.208;2023-02-19T01:10:39;3.40;;;2.30;;
57303;SDS011;43150;50.986;18.208;2023-02-19T01:13:05;3.10;;;2.20;;
57303;SDS011;43150;50.986;18.208;2023-02-19T01:15:33;3.00;;;1.90;;
57303;SDS011;43150;50.986;18.208;2023-02-19T01:17:59;3.40;;;2.40;;
57303;SDS011;43150;50.986;18.208;2023-02-19T01:20:31;3.70;;;2.50;;
57303;SDS011;43150;50.986;18.208;2023-02-19T01:22:56;3.00;;;2.00;;
57303;SDS011;43150;50.986;18.208;2023-02-19T01:25:24;2.80;;;2.10;;
57303;SDS011;43150;50.986;18.208;2023-02-19T01:27:49;4.90;;;2.50;;
57303;SDS011;43150;50.986;18.208;2023-02-19T01:30:15;4.10;;;2.90;;
57303;SDS011;43150;50.986;18.208;2023-02-19T01:32:44;4.50;;;3.00;;
57303;SDS011;43150;50.986;18.208;2023-02-19T01:35:09;5.60;;;3.50;;
57303;SDS011;43150;50.986;18.208;2023-02-19T01:37:35;5.20;;;3.10;;
57303;SDS011;43150;50.986;18.208;2023-02-19T01:40:04;9.20;;;5.60;;
57303;SDS011;43150;50.986;18.208;2023-02-19T01:42:30;10.30;;;6.80;;
57303;SDS011;43150;50.986;18.208;2023-02-19T01:45:12;9.70;;;6.00;;
57303;SDS011;43150;50.986;18.208;2023-02-19T01:47:40;9.10;;;5.70;;
57303;SDS011;43150;50.986;18.208;2023-02-19T01:50:06;8.90;;;5.50;;
57303;SDS011;43150;50.986;18.208;2023-02-19T01:52:36;8.60;;;5.00;;
57303;SDS011;43150;50.986;18.208;2023-02-19T01:55:02;7.50;;;5.00;;
57303;SDS011;43150;50.986;18.208;2023-02-19T01:57:29;7.70;;;4.60;;
57303;SDS011;43150;50.986;18.208;2023-02-19T02:00:01;9.10;;;5.80;;
57303;SDS011;43150;50.986;18.208;2023-02-19T02:02:28;7.20;;;4.10;;
57303;SDS011;43150;50.986;18.208;2023-02-19T02:04:54;7.30;;;4.90;;
57303;SDS011;43150;50.986;18.208;2023-02-19T02:07:25;7.60;;;5.00;;
57303;SDS011;43150;50.986;18.208;2023-02-19T02:10:09;9.30;;;5.70;;
57303;SDS011;43150;50.986;18.208;2023-02-19T02:12:50;8.90;;;5.90;;
57303;SDS011;43150;50.986;18.208;2023-02-19T02:15:16;9.40;;;6.20;;
57303;SDS011;43150;50.986;18.208;2023-02-19T02:20:24;8.50;;;5.00;;
57303;SDS011;43150;50.986;18.208;2023-02-19T02:28:43;6.20;;;4.00;;
57303;SDS011;43150;50.986;18.208;2023-02-19T02:36:41;8.90;;;5.50;;
57303;SDS011;43150;50.986;18.208;2023-02-19T02:39:08;7.80;;;4.30;;
57303;SDS011;43150;50.986;18.208;2023-02-19T02:41:40;6.80;;;4.20;;
57303;SDS011;43150;50.986;18.208;2023-02-19T02:44:06;8.00;;;5.00;;
57303;SDS011;43150;50.986;18.208;2023-02-19T02:46:33;8.30;;;5.00;;
57303;SDS011;43150;50.986;18.208;2023-02-19T02:49:02;9.10;;;6.10;;
57303;SDS011;43150;50.986;18.208;2023-02-19T02:54:06;9.00;;;5.50;;
57303;SDS011;43150;50.986;18.208;2023-02-19T02:56:51;8.60;;;5.20;;
57303;SDS011;43150;50.986;18.208;2023-02-19T02:59:21;9.40;;;4.70;;
57303;SDS011;43150;50.986;18.208;2023-02-19T03:02:01;8.70;;;4.80;;
57303;SDS011;43150;50.986;18.208;2023-02-19T03:10:27;10.30;;;6.30;;
57303;SDS011;43150;50.986;18.208;2023-02-19T03:12:56;9.30;;;6.30;;
57303;SDS011;43150;50.986;18.208;2023-02-19T03:15:44;9.00;;;5.80;;
57303;SDS011;43150;50.986;18.208;2023-02-19T03:18:30;9.80;;;6.00;;
57303;SDS011;43150;50.986;18.208;2023-02-19T03:21:21;8.10;;;5.40;;
57303;SDS011;43150;50.986;18.208;2023-02-19T03:23:47;10.70;;;6.70;;
57303;SDS011;43150;50.986;18.208;2023-02-19T03:26:31;9.60;;;6.00;;
57303;SDS011;43150;50.986;18.208;2023-02-19T03:28:57;11.30;;;7.10;;
57303;SDS011;43150;50.986;18.208;2023-02-19T03:32:02;11.40;;;7.30;;
57303;SDS011;43150;50.986;18.208;2023-02-19T03:34:40;10.60;;;6.70;;
57303;SDS011;43150;50.986;18.208;2023-02-19T03:37:21;7.80;;;5.10;;
57303;SDS011;43150;50.986;18.208;2023-02-19T03:39:50;9.10;;;6.20;;
57303;SDS011;43150;50.986;18.208;2023-02-19T03:45:10;8.20;;;5.80;;
57303;SDS011;43150;50.986;18.208;2023-02-19T03:47:54;8.60;;;5.80;;
57303;SDS011;43150;50.986;18.208;2023-02-19T03:50:26;7.30;;;4.30;;
57303;SDS011;43150;50.986;18.208;2023-02-19T03:53:11;7.00;;;4.00;;
57303;SDS011;43150;50.986;18.208;2023-02-19T03:58:11;6.40;;;4.30;;
57303;SDS011;43150;50.986;18.208;2023-02-19T04:01:02;7.90;;;5.00;;
57303;SDS011;43150;50.986;18.208;2023-02-19T04:03:34;6.60;;;4.60;;
57303;SDS011;43150;50.986;18.208;2023-02-19T04:06:02;4.80;;;3.50;;
57303;SDS011;43150;50.986;18.208;2023-02-19T04:08:28;7.90;;;5.30;;
57303;SDS011;43150;50.986;18.208;2023-02-19T04:10:55;5.10;;;2.90;;
57303;SDS011;43150;50.986;18.208;2023-02-19T04:13:31;4.40;;;3.60;;
57303;SDS011;43150;50.986;18.208;2023-02-19T04:16:02;6.10;;;3.90;;
57303;SDS011;43150;50.986;18.208;2023-02-19T04:18:31;5.80;;;3.80;;
57303;SDS011;43150;50.986;18.208;2023-02-19T04:21:05;5.50;;;3.20;;
57303;SDS011;43150;50.986;18.208;2023-02-19T04:23:34;5.50;;;3.40;;
57303;SDS011;43150;50.986;18.208;2023-02-19T04:26:03;6.50;;;4.00;;
57303;SDS011;43150;50.986;18.208;2023-02-19T04:28:39;3.90;;;2.70;;
57303;SDS011;43150;50.986;18.208;2023-02-19T04:31:07;5.20;;;3.40;;
57303;SDS011;43150;50.986;18.208;2023-02-19T04:33:37;4.30;;;3.30;;
57303;SDS011;43150;50.986;18.208;2023-02-19T04:36:06;6.40;;;3.80;;
57303;SDS011;43150;50.986;18.208;2023-02-19T04:38:32;6.40;;;4.00;;
57303;SDS011;43150;50.986;18.208;2023-02-19T04:41:16;4.40;;;2.50;;
57303;SDS011;43150;50.986;18.208;2023-02-19T04:43:43;3.90;;;2.50;;
57303;SDS011;43150;50.986;18.208;2023-02-19T04:46:09;6.10;;;2.70;;
57303;SDS011;43150;50.986;18.208;2023-02-19T04:48:34;4.10;;;3.30;;
57303;SDS011;43150;50.986;18.208;2023-02-19T04:51:03;5.60;;;3.50;;
57303;SDS011;43150;50.986;18.208;2023-02-19T04:53:37;5.50;;;3.80;;
57303;SDS011;43150;50.986;18.208;2023-02-19T04:56:12;5.40;;;3.50;;
57303;SDS011;43150;50.986;18.208;2023-02-19T04:59:05;5.70;;;4.60;;
57303;SDS011;43150;50.986;18.208;2023-02-19T05:01:31;4.50;;;3.60;;
57303;SDS011;43150;50.986;18.208;2023-02-19T05:03:56;3.40;;;2.50;;
57303;SDS011;43150;50.986;18.208;2023-02-19T05:06:22;5.50;;;3.80;;
57303;SDS011;43150;50.986;18.208;2023-02-19T05:08:48;3.20;;;2.10;;
57303;SDS011;43150;50.986;18.208;2023-02-19T05:11:17;2.90;;;2.30;;
57303;SDS011;43150;50.986;18.208;2023-02-19T05:13:42;2.90;;;2.10;;
57303;SDS011;43150;50.986;18.208;2023-02-19T05:16:09;2.20;;;1.70;;
57303;SDS011;43150;50.986;18.208;2023-02-19T05:18:38;5.30;;;2.60;;
57303;SDS011;43150;50.986;18.208;2023-02-19T05:21:04;3.00;;;1.90;;
57303;SDS011;43150;50.986;18.208;2023-02-19T05:23:30;2.50;;;2.00;;
57303;SDS011;43150;50.986;18.208;2023-02-19T05:25:56;1.90;;;1.70;;
57303;SDS011;43150;50.986;18.208;2023-02-19T05:28:24;1.50;;;1.30;;
57303;SDS011;43150;50.986;18.208;2023-02-19T05:30:53;2.90;;;2.00;;
57303;SDS011;43150;50.986;18.208;2023-02-19T05:33:20;2.60;;;1.70;;
57303;SDS011;43150;50.986;18.208;2023-02-19T05:35:47;3.50;;;2.30;;
57303;SDS011;43150;50.986;18.208;2023-02-19T05:38:19;3.10;;;1.50;;
57303;SDS011;43150;50.986;18.208;2023-02-19T05:40:45;2.80;;;1.60;;
57303;SDS011;43150;50.986;18.208;2023-02-19T05:43:14;2.60;;;1.80;;
57303;SDS011;43150;50.986;18.208;2023-02-19T05:45:40;3.10;;;1.80;;
57303;SDS011;43150;50.986;18.208;2023-02-19T05:48:07;2.80;;;1.60;;
57303;SDS011;43150;50.986;18.208;2023-02-19T05:50:35;2.20;;;1.40;;
57303;SDS011;43150;50.986;18.208;2023-02-19T05:53:08;1.40;;;1.30;;
57303;SDS011;43150;50.986;18.208;2023-02-19T05:55:35;2.20;;;1.60;;
57303;SDS011;43150;50.986;18.208;2023-02-19T05:58:04;2.50;;;1.50;;
57303;SDS011;43150;50.986;18.208;2023-02-19T06:00:32;2.30;;;1.20;;
57303;SDS011;43150;50.986;18.208;2023-02-19T06:02:59;1.70;;;1.50;;
57303;SDS011;43150;50.986;18.208;2023-02-19T06:05:24;2.00;;;1.70;;
57303;SDS011;43150;50.986;18.208;2023-02-19T06:07:50;2.80;;;2.00;;
57303;SDS011;43150;50.986;18.208;2023-02-19T06:10:25;2.10;;;1.90;;
57303;SDS011;43150;50.986;18.208;2023-02-19T06:12:53;2.30;;;2.10;;
57303;SDS011;43150;50.986;18.208;2023-02-19T06:15:29;3.40;;;2.60;;
57303;SDS011;43150;50.986;18.208;2023-02-19T06:18:01;2.30;;;2.00;;
57303;SDS011;43150;50.986;18.208;2023-02-19T06:20:36;3.10;;;2.80;;
57303;SDS011;43150;50.986;18.208;2023-02-19T06:23:02;2.90;;;2.50;;
57303;SDS011;43150;50.986;18.208;2023-02-19T06:25:27;3.40;;;2.10;;
57303;SDS011;43150;50.986;18.208;2023-02-19T06:27:54;3.50;;;2.90;;
57303;SDS011;43150;50.986;18.208;2023-02-19T06:30:20;2.90;;;2.60;;
57303;SDS011;43150;50.986;18.208;2023-02-19T06:32:46;3.10;;;2.40;;
57303;SDS011;43150;50.986;18.208;2023-02-19T06:35:11;4.20;;;3.00;;
57303;SDS011;43150;50.986;18.208;2023-02-19T06:37:37;7.80;;;3.00;;
57303;SDS011;43150;50.986;18.208;2023-02-19T06:40:03;3.90;;;3.10;;
57303;SDS011;43150;50.986;18.208;2023-02-19T06:42:31;3.60;;;2.60;;
57303;SDS011;43150;50.986;18.208;2023-02-19T06:44:57;3.90;;;3.20;;
57303;SDS011;43150;50.986;18.208;2023-02-19T06:47:23;4.00;;;2.90;;
57303;SDS011;43150;50.986;18.208;2023-02-19T06:49:50;3.90;;;2.90;;
57303;SDS011;43150;50.986;18.208;2023-02-19T06:52:16;3.40;;;2.40;;
57303;SDS011;43150;50.986;18.208;2023-02-19T06:55:03;3.30;;;2.10;;
57303;SDS011;43150;50.986;18.208;2023-02-19T06:57:28;2.80;;;2.10;;
57303;SDS011;43150;50.986;18.208;2023-02-19T06:59:59;3.20;;;2.30;;
57303;SDS011;43150;50.986;18.208;2023-02-19T07:02:24;4.50;;;3.30;;
57303;SDS011;43150;50.986;18.208;2023-02-19T07:04:50;5.50;;;3.90;;
57303;SDS011;43150;50.986;18.208;2023-02-19T07:07:20;5.80;;;4.00;;
57303;SDS011;43150;50.986;18.208;2023-02-19T07:09:46;6.50;;;4.40;;
57303;SDS011;43150;50.986;18.208;2023-02-19T07:12:12;6.60;;;5.60;;
57303;SDS011;43150;50.986;18.208;2023-02-19T07:14:44;6.50;;;4.00;;
57303;SDS011;43150;50.986;18.208;2023-02-19T07:17:15;5.50;;;4.10;;
57303;SDS011;43150;50.986;18.208;2023-02-19T07:19:41;4.30;;;3.20;;
57303;SDS011;43150;50.986;18.208;2023-02-19T07:22:06;4.60;;;3.40;;
57303;SDS011;43150;50.986;18.208;2023-02-19T07:24:36;4.70;;;3.50;;
57303;SDS011;43150;50.986;18.208;2023-02-19T07:27:02;4.80;;;3.50;;
57303;SDS011;43150;50.986;18.208;2023-02-19T07:29:27;4.70;;;3.00;;
57303;SDS011;43150;50.986;18.208;2023-02-19T07:31:56;4.30;;;2.60;;
57303;SDS011;43150;50.986;18.208;2023-02-19T07:34:21;4.60;;;3.20;;
57303;SDS011;43150;50.986;18.208;2023-02-19T07:36:47;3.60;;;2.20;;
57303;SDS011;43150;50.986;18.208;2023-02-19T07:39:14;2.50;;;2.00;;
57303;SDS011;43150;50.986;18.208;2023-02-19T07:41:40;4.10;;;2.50;;
57303;SDS011;43150;50.986;18.208;2023-02-19T07:44:05;4.00;;;2.40;;
57303;SDS011;43150;50.986;18.208;2023-02-19T07:46:31;3.30;;;2.20;;
57303;SDS011;43150;50.986;18.208;2023-02-19T07:48:58;7.20;;;4.10;;
57303;SDS011;43150;50.986;18.208;2023-02-19T07:51:26;5.70;;;3.90;;
57303;SDS011;43150;50.986;18.208;2023-02-19T07:54:04;6.20;;;3.80;;
57303;SDS011;43150;50.986;18.208;2023-02-19T07:56:32;5.80;;;2.90;;
57303;SDS011;43150;50.986;18.208;2023-02-19T07:59:00;5.70;;;3.80;;
57303;SDS011;43150;50.986;18.208;2023-02-19T08:01:26;6.40;;;3.10;;
57303;SDS011;43150;50.986;18.208;2023-02-19T08:04:11;5.60;;;3.40;;
57303;SDS011;43150;50.986;18.208;2023-02-19T08:06:37;5.40;;;3.20;;
57303;SDS011;43150;50.986;18.208;2023-02-19T08:09:07;6.30;;;2.90;;
57303;SDS011;43150;50.986;18.208;2023-02-19T08:11:33;3.00;;;2.00;;
57303;SDS011;43150;50.986;18.208;2023-02-19T08:14:28;3.20;;;1.60;;
57303;SDS011;43150;50.986;18.208;2023-02-19T08:16:53;2.70;;;1.30;;
57303;SDS011;43150;50.986;18.208;2023-02-19T08:19:19;3.90;;;1.30;;
57303;SDS011;43150;50.986;18.208;2023-02-19T08:21:44;2.20;;;1.40;;
57303;SDS011;43150;50.986;18.208;2023-02-19T08:24:10;5.20;;;2.10;;
57303;SDS011;43150;50.986;18.208;2023-02-19T08:26:39;5.10;;;2.00;;
57303;SDS011;43150;50.986;18.208;2023-02-19T08:29:04;2.60;;;1.40;;
57303;SDS011;43150;50.986;18.208;2023-02-19T08:31:31;4.30;;;2.00;;
57303;SDS011;43150;50.986;18.208;2023-02-19T08:34:05;3.60;;;2.10;;
57303;SDS011;43150;50.986;18.208;2023-02-19T08:36:30;5.40;;;1.80;;
57303;SDS011;43150;50.986;18.208;2023-02-19T08:38:56;5.70;;;1.80;;
57303;SDS011;43150;50.986;18.208;2023-02-19T08:41:21;4.40;;;2.10;;
57303;SDS011;43150;50.986;18.208;2023-02-19T08:43:47;4.50;;;2.00;;
57303;SDS011;43150;50.986;18.208;2023-02-19T08:46:12;3.80;;;2.00;;
57303;SDS011;43150;50.986;18.208;2023-02-19T08:48:38;4.90;;;2.30;;
57303;SDS011;43150;50.986;18.208;2023-02-19T08:51:05;4.20;;;1.80;;
57303;SDS011;43150;50.986;18.208;2023-02-19T08:53:33;2.80;;;1.40;;
57303;SDS011;43150;50.986;18.208;2023-02-19T08:56:03;5.20;;;1.70;;
57303;SDS011;43150;50.986;18.208;2023-02-19T08:58:29;3.60;;;1.30;;
57303;SDS011;43150;50.986;18.208;2023-02-19T09:00:54;4.00;;;1.50;;
57303;SDS011;43150;50.986;18.208;2023-02-19T09:03:20;5.40;;;1.80;;
57303;SDS011;43150;50.986;18.208;2023-02-19T09:05:45;6.50;;;2.00;;
57303;SDS011;43150;50.986;18.208;2023-02-19T09:08:17;4.40;;;2.00;;
57303;SDS011;43150;50.986;18.208;2023-02-19T09:10:43;3.00;;;1.60;;
57303;SDS011;43150;50.986;18.208;2023-02-19T09:13:09;5.10;;;1.90;;
57303;SDS011;43150;50.986;18.208;2023-02-19T09:15:37;6.10;;;2.10;;
57303;SDS011;43150;50.986;18.208;2023-02-19T09:18:03;3.10;;;1.60;;
57303;SDS011;43150;50.986;18.208;2023-02-19T09:20:28;4.50;;;1.40;;
57303;SDS011;43150;50.986;18.208;2023-02-19T09:22:57;4.90;;;1.40;;
57303;SDS011;43150;50.986;18.208;2023-02-19T09:25:23;3.70;;;1.50;;
57303;SDS011;43150;50.986;18.208;2023-02-19T09:27:49;2.60;;;1.00;;
57303;SDS011;43150;50.986;18.208;2023-02-19T09:30:14;2.60;;;1.00;;
57303;SDS011;43150;50.986;18.208;2023-02-19T09:32:40;2.60;;;1.20;;
57303;SDS011;43150;50.986;18.208;2023-02-19T09:35:05;2.40;;;1.10;;
57303;SDS011;43150;50.986;18.208;2023-02-19T09:37:31;3.20;;;1.00;;
57303;SDS011;43150;50.986;18.208;2023-02-19T09:39:57;2.20;;;1.20;;
57303;SDS011;43150;50.986;18.208;2023-02-19T09:42:35;5.10;;;1.90;;
57303;SDS011;43150;50.986;18.208;2023-02-19T09:45:04;2.00;;;1.20;;
57303;SDS011;43150;50.986;18.208;2023-02-19T09:47:30;2.70;;;1.10;;
57303;SDS011;43150;50.986;18.208;2023-02-19T09:50:08;1.70;;;0.70;;
57303;SDS011;43150;50.986;18.208;2023-02-19T09:52:39;1.10;;;0.80;;
57303;SDS011;43150;50.986;18.208;2023-02-19T09:55:14;2.30;;;0.80;;
57303;SDS011;43150;50.986;18.208;2023-02-19T09:57:41;2.40;;;1.00;;
57303;SDS011;43150;50.986;18.208;2023-02-19T10:02:37;2.00;;;1.10;;
57303;SDS011;43150;50.986;18.208;2023-02-19T10:05:05;3.20;;;1.10;;
57303;SDS011;43150;50.986;18.208;2023-02-19T10:10:17;2.10;;;0.90;;
57303;SDS011;43150;50.986;18.208;2023-02-19T10:12:47;1.60;;;0.70;;
57303;SDS011;43150;50.986;18.208;2023-02-19T10:17:46;3.60;;;0.80;;
57303;SDS011;43150;50.986;18.208;2023-02-19T10:20:17;2.00;;;1.00;;
57303;SDS011;43150;50.986;18.208;2023-02-19T10:22:44;1.40;;;1.00;;
57303;SDS011;43150;50.986;18.208;2023-02-19T10:25:13;2.80;;;1.00;;
57303;SDS011;43150;50.986;18.208;2023-02-19T10:27:39;4.00;;;1.40;;
57303;SDS011;43150;50.986;18.208;2023-02-19T10:30:05;4.00;;;1.20;;
57303;SDS011;43150;50.986;18.208;2023-02-19T10:32:32;2.50;;;0.90;;
57303;SDS011;43150;50.986;18.208;2023-02-19T10:35:15;2.90;;;1.10;;
57303;SDS011;43150;50.986;18.208;2023-02-19T10:37:54;2.50;;;0.90;;
57303;SDS011;43150;50.986;18.208;2023-02-19T10:40:21;3.00;;;1.30;;
57303;SDS011;43150;50.986;18.208;2023-02-19T10:42:53;2.20;;;1.10;;
57303;SDS011;43150;50.986;18.208;2023-02-19T10:45:21;2.90;;;1.50;;
57303;SDS011;43150;50.986;18.208;2023-02-19T10:47:47;2.70;;;1.50;;
57303;SDS011;43150;50.986;18.208;2023-02-19T10:50:29;4.80;;;2.10;;
57303;SDS011;43150;50.986;18.208;2023-02-19T10:52:57;2.60;;;1.70;;
57303;SDS011;43150;50.986;18.208;2023-02-19T10:55:27;2.20;;;1.00;;
57303;SDS011;43150;50.986;18.208;2023-02-19T10:57:53;1.60;;;1.00;;
57303;SDS011;43150;50.986;18.208;2023-02-19T11:02:46;3.30;;;1.40;;
57303;SDS011;43150;50.986;18.208;2023-02-19T11:05:18;3.00;;;1.40;;
57303;SDS011;43150;50.986;18.208;2023-02-19T11:07:51;4.10;;;1.30;;
57303;SDS011;43150;50.986;18.208;2023-02-19T11:10:28;3.60;;;1.10;;
57303;SDS011;43150;50.986;18.208;2023-02-19T11:12:58;6.00;;;1.50;;
57303;SDS011;43150;50.986;18.208;2023-02-19T11:15:26;1.20;;;0.80;;
57303;SDS011;43150;50.986;18.208;2023-02-19T11:17:56;2.30;;;1.20;;
57303;SDS011;43150;50.986;18.208;2023-02-19T11:20:26;1.30;;;1.00;;
57303;SDS011;43150;50.986;18.208;2023-02-19T11:22:54;4.70;;;1.70;;
57303;SDS011;43150;50.986;18.208;2023-02-19T11:25:43;2.40;;;1.00;;
57303;SDS011;43150;50.986;18.208;2023-02-19T11:28:19;3.40;;;1.70;;
57303;SDS011;43150;50.986;18.208;2023-02-19T11:30:46;2.30;;;1.60;;
57303;SDS011;43150;50.986;18.208;2023-02-19T11:35:42;2.80;;;1.20;;
57303;SDS011;43150;50.986;18.208;2023-02-19T11:38:13;3.90;;;1.60;;
57303;SDS011;43150;50.986;18.208;2023-02-19T11:56:38;2.60;;;1.60;;
57303;SDS011;43150;50.986;18.208;2023-02-19T12:09:59;3.50;;;1.90;;
57303;SDS011;43150;50.986;18.208;2023-02-19T12:12:47;4.20;;;2.00;;
57303;SDS011;43150;50.986;18.208;2023-02-19T12:20:29;5.20;;;2.20;;
57303;SDS011;43150;50.986;18.208;2023-02-19T12:29:15;5.90;;;2.80;;
57303;SDS011;43150;50.986;18.208;2023-02-19T12:41:43;7.40;;;2.40;;
57303;SDS011;43150;50.986;18.208;2023-02-19T12:46:38;4.90;;;2.30;;
57303;SDS011;43150;50.986;18.208;2023-02-19T12:51:42;5.50;;;2.40;;
57303;SDS011;43150;50.986;18.208;2023-02-19T13:04:56;4.90;;;2.10;;
57303;SDS011;43150;50.986;18.208;2023-02-19T13:07:24;6.10;;;1.80;;
57303;SDS011;43150;50.986;18.208;2023-02-19T13:09:53;4.20;;;1.90;;
57303;SDS011;43150;50.986;18.208;2023-02-19T13:12:29;6.60;;;2.70;;
57303;SDS011;43150;50.986;18.208;2023-02-19T13:14:58;3.80;;;1.70;;
57303;SDS011;43150;50.986;18.208;2023-02-19T13:17:41;2.10;;;1.10;;
57303;SDS011;43150;50.986;18.208;2023-02-19T13:33:57;4.20;;;2.20;;
57303;SDS011;43150;50.986;18.208;2023-02-19T13:36:29;4.60;;;2.30;;
57303;SDS011;43150;50.986;18.208;2023-02-19T13:38:56;4.40;;;2.40;;
57303;SDS011;43150;50.986;18.208;2023-02-19T13:41:30;3.70;;;1.70;;
57303;SDS011;43150;50.986;18.208;2023-02-19T13:44:00;5.10;;;2.30;;
57303;SDS011;43150;50.986;18.208;2023-02-19T13:46:34;5.10;;;2.50;;
57303;SDS011;43150;50.986;18.208;2023-02-19T13:51:46;4.70;;;1.90;;
57303;SDS011;43150;50.986;18.208;2023-02-19T13:54:19;5.00;;;2.40;;
57303;SDS011;43150;50.986;18.208;2023-02-19T13:56:45;6.30;;;1.90;;
57303;SDS011;43150;50.986;18.208;2023-02-19T14:04:24;5.50;;;2.00;;
57303;SDS011;43150;50.986;18.208;2023-02-19T14:30:28;6.70;;;2.20;;
57303;SDS011;43150;50.986;18.208;2023-02-19T14:32:54;3.70;;;2.00;;
57303;SDS011;43150;50.986;18.208;2023-02-19T14:35:26;4.40;;;2.20;;
57303;SDS011;43150;50.986;18.208;2023-02-19T14:37:54;8.40;;;2.90;;
57303;SDS011;43150;50.986;18.208;2023-02-19T14:40:22;9.30;;;3.00;;
57303;SDS011;43150;50.986;18.208;2023-02-19T14:42:50;7.10;;;2.30;;
57303;SDS011;43150;50.986;18.208;2023-02-19T14:45:18;5.90;;;2.40;;
57303;SDS011;43150;50.986;18.208;2023-02-19T14:47:44;5.30;;;2.80;;
57303;SDS011;43150;50.986;18.208;2023-02-19T14:50:15;6.60;;;2.30;;
57303;SDS011;43150;50.986;18.208;2023-02-19T14:52:46;6.20;;;2.80;;
57303;SDS011;43150;50.986;18.208;2023-02-19T14:55:28;4.20;;;2.40;;
57303;SDS011;43150;50.986;18.208;2023-02-19T14:57:55;4.10;;;2.20;;
57303;SDS011;43150;50.986;18.208;2023-02-19T15:00:28;3.90;;;2.00;;
57303;SDS011;43150;50.986;18.208;2023-02-19T15:02:55;6.40;;;2.20;;
57303;SDS011;43150;50.986;18.208;2023-02-19T15:05:25;8.30;;;2.30;;
57303;SDS011;43150;50.986;18.208;2023-02-19T15:07:51;5.40;;;2.10;;
57303;SDS011;43150;50.986;18.208;2023-02-19T15:10:17;4.00;;;1.90;;
57303;SDS011;43150;50.986;18.208;2023-02-19T15:12:45;3.40;;;1.50;;
57303;SDS011;43150;50.986;18.208;2023-02-19T15:15:15;6.10;;;1.90;;
57303;SDS011;43150;50.986;18.208;2023-02-19T15:17:42;5.30;;;2.10;;
57303;SDS011;43150;50.986;18.208;2023-02-19T15:20:09;6.00;;;2.30;;
57303;SDS011;43150;50.986;18.208;2023-02-19T15:22:36;3.80;;;2.30;;
57303;SDS011;43150;50.986;18.208;2023-02-19T15:25:04;3.80;;;1.90;;
57303;SDS011;43150;50.986;18.208;2023-02-19T15:27:30;6.30;;;1.90;;
57303;SDS011;43150;50.986;18.208;2023-02-19T15:29:58;4.10;;;1.40;;
57303;SDS011;43150;50.986;18.208;2023-02-19T15:32:25;3.60;;;2.10;;
57303;SDS011;43150;50.986;18.208;2023-02-19T15:34:57;6.30;;;2.00;;
57303;SDS011;43150;50.986;18.208;2023-02-19T15:37:24;4.20;;;1.70;;
57303;SDS011;43150;50.986;18.208;2023-02-19T15:39:50;4.20;;;1.50;;
57303;SDS011;43150;50.986;18.208;2023-02-19T15:42:18;4.50;;;1.50;;
57303;SDS011;43150;50.986;18.208;2023-02-19T15:45:04;5.10;;;1.50;;
57303;SDS011;43150;50.986;18.208;2023-02-19T15:47:36;6.40;;;1.80;;
57303;SDS011;43150;50.986;18.208;2023-02-19T15:52:38;5.90;;;1.90;;
57303;SDS011;43150;50.986;18.208;2023-02-19T15:57:44;5.10;;;2.10;;
57303;SDS011;43150;50.986;18.208;2023-02-19T16:00:16;7.60;;;2.20;;
57303;SDS011;43150;50.986;18.208;2023-02-19T16:02:44;7.40;;;2.20;;
57303;SDS011;43150;50.986;18.208;2023-02-19T16:05:12;6.40;;;1.90;;
57303;SDS011;43150;50.986;18.208;2023-02-19T16:07:44;6.70;;;2.20;;
57303;SDS011;43150;50.986;18.208;2023-02-19T16:10:21;8.30;;;2.00;;
57303;SDS011;43150;50.986;18.208;2023-02-19T16:12:54;6.80;;;2.00;;
57303;SDS011;43150;50.986;18.208;2023-02-19T16:15:25;4.00;;;1.60;;
57303;SDS011;43150;50.986;18.208;2023-02-19T16:17:52;4.50;;;1.60;;
57303;SDS011;43150;50.986;18.208;2023-02-19T16:20:21;5.60;;;2.00;;
57303;SDS011;43150;50.986;18.208;2023-02-19T16:22:48;4.00;;;1.70;;
57303;SDS011;43150;50.986;18.208;2023-02-19T16:25:24;4.70;;;2.00;;
57303;SDS011;43150;50.986;18.208;2023-02-19T16:27:50;6.80;;;2.10;;
57303;SDS011;43150;50.986;18.208;2023-02-19T16:32:42;6.40;;;2.20;;
57303;SDS011;43150;50.986;18.208;2023-02-19T16:37:56;3.70;;;1.30;;
57303;SDS011;43150;50.986;18.208;2023-02-19T16:45:13;9.30;;;2.70;;
57303;SDS011;43150;50.986;18.208;2023-02-19T16:47:39;5.00;;;1.70;;
57303;SDS011;43150;50.986;18.208;2023-02-19T16:50:10;4.10;;;2.00;;
57303;SDS011;43150;50.986;18.208;2023-02-19T16:52:49;8.90;;;2.50;;
57303;SDS011;43150;50.986;18.208;2023-02-19T16:55:27;5.00;;;2.20;;
57303;SDS011;43150;50.986;18.208;2023-02-19T16:57:52;6.60;;;1.90;;
57303;SDS011;43150;50.986;18.208;2023-02-19T17:00:22;8.40;;;2.60;;
57303;SDS011;43150;50.986;18.208;2023-02-19T17:02:48;5.70;;;1.80;;
57303;SDS011;43150;50.986;18.208;2023-02-19T17:05:16;5.60;;;2.10;;
57303;SDS011;43150;50.986;18.208;2023-02-19T17:07:42;8.80;;;2.80;;
57303;SDS011;43150;50.986;18.208;2023-02-19T17:10:18;6.30;;;2.10;;
57303;SDS011;43150;50.986;18.208;2023-02-19T17:12:44;10.60;;;3.00;;
57303;SDS011;43150;50.986;18.208;2023-02-19T17:15:11;6.50;;;2.20;;
57303;SDS011;43150;50.986;18.208;2023-02-19T17:17:36;6.50;;;1.30;;
57303;SDS011;43150;50.986;18.208;2023-02-19T17:20:05;9.00;;;2.40;;
57303;SDS011;43150;50.986;18.208;2023-02-19T17:22:37;5.50;;;1.80;;
57303;SDS011;43150;50.986;18.208;2023-02-19T17:25:02;5.80;;;2.50;;
57303;SDS011;43150;50.986;18.208;2023-02-19T17:27:28;5.30;;;2.30;;
57303;SDS011;43150;50.986;18.208;2023-02-19T17:29:54;5.00;;;2.10;;
57303;SDS011;43150;50.986;18.208;2023-02-19T17:32:19;13.50;;;2.90;;
57303;SDS011;43150;50.986;18.208;2023-02-19T17:34:46;5.70;;;2.40;;